createdAt,value
2023-11-19T00:01:34.865Z,68.03
2023-11-19T00:04:01.699Z,68.16
2023-11-19T00:06:29.048Z,67.75
2023-11-19T00:08:55.772Z,67.88
2023-11-19T00:11:22.631Z,68.41
2023-11-19T00:13:49.497Z,68.66
2023-11-19T00:16:17.694Z,68.72
2023-11-19T00:18:44.632Z,68.84
2023-11-19T00:21:11.645Z,68.97
2023-11-19T00:23:38.908Z,68.73
2023-11-19T00:26:07.409Z,68.87
2023-11-19T00:28:35.304Z,69.21
2023-11-19T00:31:02.012Z,69.13
2023-11-19T00:33:28.765Z,69.52
2023-11-19T00:35:55.396Z,69.37
2023-11-19T00:38:22.291Z,70.00
2023-11-19T00:40:48.960Z,69.88
2023-11-19T00:43:15.630Z,70.56
2023-11-19T00:45:42.383Z,69.94
2023-11-19T00:48:09.031Z,70.24
2023-11-19T00:50:37.764Z,70.40
2023-11-19T00:53:05.184Z,70.61
2023-11-19T00:55:31.829Z,70.73
2023-11-19T00:57:59.194Z,70.94
2023-11-19T01:00:28.515Z,71.00
2023-11-19T01:02:55.275Z,70.70
2023-11-19T01:05:23.953Z,70.65
2023-11-19T01:07:51.314Z,70.98
2023-11-19T01:10:19.865Z,70.91
2023-11-19T01:12:46.623Z,70.99
2023-11-19T01:15:14.366Z,70.67
2023-11-19T01:17:52.337Z,70.65
2023-11-19T01:20:21.188Z,70.44
2023-11-19T01:22:49.899Z,70.56
2023-11-19T01:25:16.975Z,70.53
2023-11-19T01:27:43.673Z,71.08
2023-11-19T01:30:14.215Z,70.69
2023-11-19T01:32:41.777Z,70.66
2023-11-19T01:35:12.221Z,70.99
2023-11-19T01:37:38.971Z,71.27
2023-11-19T01:40:07.586Z,71.12
2023-11-19T01:42:39.573Z,71.48
2023-11-19T01:45:09.480Z,71.26
2023-11-19T01:47:36.660Z,70.96
2023-11-19T01:50:07.831Z,70.95
2023-11-19T01:52:37.812Z,70.57
2023-11-19T01:55:05.508Z,70.41
2023-11-19T01:57:32.094Z,70.68
2023-11-19T01:59:59.173Z,70.61
2023-11-19T02:02:27.437Z,70.33
2023-11-19T02:04:54.557Z,70.39
2023-11-19T02:07:21.816Z,70.20
2023-11-19T02:09:49.306Z,70.33
2023-11-19T02:12:16.393Z,70.56
2023-11-19T02:14:43.005Z,70.54
2023-11-19T02:17:27.143Z,70.80
2023-11-19T02:19:53.797Z,70.83
2023-11-19T02:22:21.157Z,70.74
2023-11-19T02:24:50.475Z,70.62
2023-11-19T02:27:38.254Z,70.56
2023-11-19T02:30:07.402Z,70.14
2023-11-19T02:32:34.026Z,70.00
2023-11-19T02:37:30.057Z,69.66
2023-11-19T02:39:57.539Z,69.23
2023-11-19T02:42:24.110Z,69.27
2023-11-19T02:44:50.691Z,69.37
2023-11-19T02:47:18.161Z,69.26
2023-11-19T02:49:44.701Z,69.34
2023-11-19T02:52:11.707Z,69.45
2023-11-19T02:54:38.347Z,69.71
2023-11-19T02:57:05.858Z,69.46
2023-11-19T02:59:40.273Z,69.25
2023-11-19T03:02:13.383Z,68.50
2023-11-19T03:04:44.425Z,68.43
2023-11-19T03:07:11.029Z,68.62
2023-11-19T03:09:37.672Z,68.33
2023-11-19T03:12:07.625Z,68.57
2023-11-19T03:14:37.072Z,68.22
2023-11-19T03:17:04.821Z,68.55
2023-11-19T03:19:31.541Z,68.66
2023-11-19T03:21:58.109Z,68.33
2023-11-19T03:24:26.211Z,68.55
2023-11-19T03:26:52.859Z,68.37
2023-11-19T03:29:19.456Z,67.29
2023-11-19T03:31:46.050Z,67.68
2023-11-19T03:34:12.791Z,67.87
2023-11-19T03:36:39.405Z,67.98
2023-11-19T03:39:06.276Z,67.77
2023-11-19T03:44:02.343Z,67.92
2023-11-19T03:46:29.816Z,67.92
2023-11-19T03:48:56.507Z,68.34
2023-11-19T03:51:23.129Z,68.51
2023-11-19T03:53:49.682Z,69.19
2023-11-19T03:56:16.313Z,68.79
2023-11-19T03:58:43.285Z,68.95
2023-11-19T04:01:14.696Z,68.29
2023-11-19T04:03:50.943Z,69.18
2023-11-19T04:06:18.069Z,69.82
2023-11-19T04:08:44.672Z,70.15
2023-11-19T04:11:11.829Z,70.57
2023-11-19T04:13:38.406Z,70.23
2023-11-19T04:16:05.821Z,70.09
2023-11-19T04:18:33.273Z,69.85
2023-11-19T04:20:59.872Z,69.93
2023-11-19T04:23:26.573Z,69.66
2023-11-19T04:25:53.218Z,67.89
2023-11-19T04:28:19.765Z,68.57
2023-11-19T04:30:46.714Z,68.58
2023-11-19T04:33:13.392Z,68.52
2023-11-19T04:35:39.961Z,68.56
2023-11-19T04:38:06.786Z,69.07
2023-11-19T04:40:35.002Z,67.31
2023-11-19T04:43:01.931Z,67.72
2023-11-19T04:45:28.574Z,68.18
2023-11-19T04:47:55.165Z,68.09
2023-11-19T04:50:21.839Z,68.33
2023-11-19T04:52:48.440Z,68.79
2023-11-19T04:55:15.859Z,68.94
2023-11-19T04:57:42.694Z,69.03
2023-11-19T05:02:39.465Z,69.70
2023-11-19T05:05:06.941Z,70.93
2023-11-19T05:07:33.579Z,72.26
2023-11-19T05:10:00.467Z,73.51
2023-11-19T05:12:27.305Z,73.63
2023-11-19T05:14:53.910Z,73.93
2023-11-19T05:17:20.679Z,73.71
2023-11-19T05:19:48.385Z,73.76
2023-11-19T05:22:15.001Z,73.47
2023-11-19T05:24:42.174Z,73.68
2023-11-19T05:27:09.179Z,73.49
2023-11-19T05:29:35.940Z,73.01
2023-11-19T05:32:02.651Z,72.74
2023-11-19T05:34:30.043Z,72.40
2023-11-19T05:36:56.660Z,72.19
2023-11-19T05:39:23.228Z,71.83
2023-11-19T05:41:49.902Z,71.75
2023-11-19T05:44:16.623Z,72.20
2023-11-19T05:46:44.406Z,72.37
2023-11-19T05:49:12.036Z,72.40
2023-11-19T05:51:39.966Z,72.26
2023-11-19T05:54:11.177Z,72.00
2023-11-19T05:56:38.032Z,71.24
2023-11-19T05:59:08.393Z,71.00
2023-11-19T06:01:35.947Z,70.79
2023-11-19T06:04:02.760Z,70.50
2023-11-19T06:06:30.129Z,70.26
2023-11-19T06:08:57.354Z,69.68
2023-11-19T06:11:24.059Z,69.89
2023-11-19T06:13:52.313Z,69.92
2023-11-19T06:16:19.294Z,70.29
2023-11-19T06:18:46.247Z,70.27
2023-11-19T06:21:13.712Z,70.28
2023-11-19T06:23:40.266Z,70.17
2023-11-19T06:26:07.000Z,70.19
2023-11-19T06:28:33.678Z,70.63
2023-11-19T06:31:00.407Z,70.84
2023-11-19T06:33:28.510Z,71.14
2023-11-19T06:35:55.801Z,71.04
2023-11-19T06:38:22.576Z,70.78
2023-11-19T06:40:52.017Z,70.97
2023-11-19T06:43:20.523Z,70.61
2023-11-19T06:45:47.184Z,70.42
2023-11-19T06:48:13.771Z,69.95
2023-11-19T06:50:40.420Z,69.73
2023-11-19T06:53:11.350Z,69.97
2023-11-19T06:55:38.117Z,69.83
2023-11-19T06:58:04.827Z,69.80
2023-11-19T07:00:33.747Z,69.59
2023-11-19T07:03:01.204Z,69.50
2023-11-19T07:05:27.877Z,69.71
2023-11-19T07:07:55.681Z,69.29
2023-11-19T07:10:22.469Z,69.06
2023-11-19T07:12:50.961Z,68.41
2023-11-19T07:15:18.973Z,68.08
2023-11-19T07:17:46.414Z,67.87
2023-11-19T07:20:16.659Z,67.92
2023-11-19T07:22:46.829Z,67.73
2023-11-19T07:25:16.630Z,67.75
2023-11-19T07:27:44.069Z,67.59
2023-11-19T07:30:10.989Z,67.44
2023-11-19T07:32:40.278Z,67.33
2023-11-19T07:35:08.053Z,67.03
2023-11-19T07:37:34.678Z,66.94
2023-11-19T07:40:01.337Z,67.38
2023-11-19T07:42:28.586Z,67.26
2023-11-19T07:44:56.618Z,67.04
2023-11-19T07:47:24.654Z,67.10
2023-11-19T07:49:52.306Z,66.44
2023-11-19T07:54:48.305Z,66.22
2023-11-19T07:57:15.007Z,66.36
2023-11-19T07:59:42.230Z,66.64
2023-11-19T08:02:09.034Z,66.38
2023-11-19T08:04:35.918Z,66.75
2023-11-19T08:07:03.012Z,66.72
2023-11-19T08:09:29.779Z,66.88
2023-11-19T08:11:57.653Z,66.68
2023-11-19T08:14:25.494Z,66.46
2023-11-19T08:16:52.310Z,66.56
2023-11-19T08:19:19.205Z,66.18
2023-11-19T08:21:45.878Z,66.85
2023-11-19T08:24:12.563Z,67.71
2023-11-19T08:26:39.304Z,68.72
2023-11-19T08:29:06.917Z,69.88
2023-11-19T08:31:34.083Z,71.46
2023-11-19T08:34:00.788Z,72.56
2023-11-19T08:36:29.063Z,72.81
2023-11-19T08:38:55.660Z,72.62
2023-11-19T08:41:22.889Z,72.11
2023-11-19T08:43:49.499Z,71.46
2023-11-19T08:46:16.182Z,71.29
2023-11-19T08:48:42.812Z,71.17
2023-11-19T08:51:09.631Z,70.77
2023-11-19T08:53:36.601Z,72.26
2023-11-19T08:56:04.550Z,71.95
2023-11-19T08:58:32.044Z,71.08
2023-11-19T09:00:59.354Z,71.53
2023-11-19T09:03:31.386Z,70.95
2023-11-19T09:05:58.441Z,70.20
2023-11-19T09:08:26.481Z,70.36
2023-11-19T09:10:53.039Z,71.27
2023-11-19T09:13:19.673Z,71.17
2023-11-19T09:15:46.303Z,70.85
2023-11-19T09:18:13.105Z,69.88
2023-11-19T09:20:40.480Z,69.71
2023-11-19T09:23:10.476Z,68.67
2023-11-19T09:28:10.054Z,67.54
2023-11-19T09:30:36.737Z,67.49
2023-11-19T09:33:03.571Z,67.14
2023-11-19T09:35:30.175Z,66.71
2023-11-19T09:37:56.859Z,66.06
2023-11-19T09:40:23.753Z,65.83
2023-11-19T09:42:50.445Z,65.35
2023-11-19T09:45:18.648Z,64.56
2023-11-19T09:47:47.640Z,64.26
2023-11-19T09:50:21.235Z,63.75
2023-11-19T09:52:48.548Z,63.42
2023-11-19T09:55:15.941Z,64.27
2023-11-19T09:57:43.817Z,63.89
2023-11-19T10:00:12.388Z,62.99
2023-11-19T10:02:40.455Z,63.48
2023-11-19T10:05:08.439Z,63.27
2023-11-19T10:07:35.777Z,64.38
2023-11-19T10:10:05.338Z,63.62
2023-11-19T10:12:32.103Z,63.61
2023-11-19T10:14:59.811Z,64.23
2023-11-19T10:17:32.781Z,64.55
2023-11-19T10:20:00.467Z,64.14
2023-11-19T10:22:28.878Z,64.78
2023-11-19T10:24:56.782Z,65.58
2023-11-19T10:27:26.906Z,66.01
2023-11-19T10:29:53.654Z,65.45
2023-11-19T10:32:25.663Z,65.50
2023-11-19T10:35:05.895Z,65.00
2023-11-19T10:37:34.226Z,64.65
2023-11-19T10:40:01.277Z,65.18
2023-11-19T10:42:27.944Z,64.89
2023-11-19T10:44:54.622Z,64.81
2023-11-19T10:47:38.060Z,64.09
2023-11-19T10:50:07.538Z,64.41
2023-11-19T10:52:35.091Z,65.03
2023-11-19T10:55:06.161Z,65.10
2023-11-19T10:57:37.837Z,66.40
2023-11-19T11:00:11.726Z,67.16
2023-11-19T11:02:42.258Z,67.51
2023-11-19T11:05:09.646Z,68.30
2023-11-19T11:07:41.103Z,69.03
2023-11-19T11:10:10.491Z,69.11
2023-11-19T11:12:38.996Z,69.62
2023-11-19T11:15:07.182Z,70.34
2023-11-19T11:17:35.003Z,71.15
2023-11-19T11:20:02.175Z,71.89
2023-11-19T11:25:27.218Z,73.03
2023-11-19T11:28:06.782Z,74.18
2023-11-19T11:30:56.912Z,74.54
2023-11-19T11:36:32.865Z,74.20
2023-11-19T11:39:01.950Z,73.77
2023-11-19T11:41:30.500Z,74.29
2023-11-19T11:43:58.038Z,74.11
2023-11-19T11:46:34.003Z,74.47
2023-11-19T11:49:08.059Z,73.75
2023-11-19T11:51:57.926Z,73.40
2023-11-19T11:54:24.498Z,73.95
2023-11-19T11:57:13.864Z,72.93
2023-11-19T11:59:41.243Z,72.31
2023-11-19T12:02:10.060Z,72.40
2023-11-19T12:04:38.003Z,72.39
2023-11-19T12:07:27.995Z,71.94
2023-11-19T12:10:09.061Z,71.95
2023-11-19T12:12:37.057Z,72.37
2023-11-19T12:15:15.458Z,71.00
2023-11-19T12:17:46.950Z,71.59
2023-11-19T12:20:13.839Z,71.38
2023-11-19T12:22:42.351Z,71.64
2023-11-19T12:25:10.798Z,71.38
2023-11-19T12:27:40.250Z,71.27
2023-11-19T12:30:07.486Z,71.07
2023-11-19T12:32:44.694Z,71.22
2023-11-19T12:35:12.604Z,72.21
2023-11-19T12:37:46.518Z,71.70
2023-11-19T12:40:17.182Z,71.36
2023-11-19T12:42:48.181Z,71.28
2023-11-19T12:45:15.638Z,70.78
2023-11-19T12:47:42.326Z,70.12
2023-11-19T12:50:10.328Z,69.22
2023-11-19T12:52:40.502Z,68.05
2023-11-19T12:55:30.479Z,68.23
2023-11-19T12:57:59.427Z,68.86
2023-11-19T13:00:28.326Z,68.46
2023-11-19T13:02:57.164Z,68.72
2023-11-19T13:05:32.620Z,68.47
2023-11-19T13:08:00.260Z,68.66
2023-11-19T13:10:28.460Z,68.88
2023-11-19T13:13:11.825Z,68.31
2023-11-19T13:15:38.452Z,67.94
2023-11-19T13:18:05.160Z,68.01
2023-11-19T13:20:32.823Z,67.81
2023-11-19T13:23:06.433Z,67.82
2023-11-19T13:25:35.888Z,67.45
2023-11-19T13:28:03.088Z,67.03
2023-11-19T13:30:30.579Z,66.89
2023-11-19T13:32:57.832Z,67.24
2023-11-19T13:35:24.611Z,66.24
2023-11-19T13:37:51.212Z,66.27
2023-11-19T13:40:17.858Z,65.44
2023-11-19T13:42:45.246Z,65.60
2023-11-19T13:45:16.138Z,65.93
2023-11-19T13:47:46.897Z,66.04
2023-11-19T13:50:15.689Z,66.01
2023-11-19T13:52:44.243Z,66.69
2023-11-19T13:55:11.822Z,66.54
2023-11-19T13:57:43.193Z,66.20
2023-11-19T14:00:14.948Z,65.99
2023-11-19T14:02:42.268Z,66.18
2023-11-19T14:05:12.625Z,67.17
2023-11-19T14:07:40.037Z,66.95
2023-11-19T14:10:07.945Z,67.75
2023-11-19T14:12:34.605Z,68.94
2023-11-19T14:15:01.364Z,69.36
2023-11-19T14:17:28.147Z,69.51
2023-11-19T14:19:54.801Z,69.83
2023-11-19T14:22:21.359Z,70.17
2023-11-19T14:24:47.914Z,69.93
2023-11-19T14:27:14.579Z,69.90
2023-11-19T14:29:41.640Z,70.40
2023-11-19T14:32:08.410Z,70.08
2023-11-19T14:34:35.033Z,70.00
2023-11-19T14:37:01.935Z,70.17
2023-11-19T14:39:30.549Z,70.41
2023-11-19T14:41:59.734Z,70.24
2023-11-19T14:44:26.267Z,70.44
2023-11-19T14:46:53.045Z,70.30
2023-11-19T14:49:19.685Z,70.61
2023-11-19T14:51:49.102Z,70.44
2023-11-19T14:54:17.030Z,70.47
2023-11-19T14:56:43.749Z,71.04
2023-11-19T14:59:10.769Z,71.20
2023-11-19T15:01:37.532Z,71.06
2023-11-19T15:04:06.600Z,70.87
2023-11-19T15:06:35.044Z,71.20
2023-11-19T15:09:02.514Z,71.46
2023-11-19T15:11:29.082Z,71.64
2023-11-19T15:13:55.803Z,71.49
2023-11-19T15:16:33.360Z,71.38
2023-11-19T15:19:00.788Z,71.50
2023-11-19T15:21:28.551Z,71.81
2023-11-19T15:23:55.133Z,71.74
2023-11-19T15:26:22.154Z,71.91
2023-11-19T15:28:48.991Z,72.10
2023-11-19T15:31:17.381Z,72.17
2023-11-19T15:33:44.057Z,72.04
2023-11-19T15:36:10.870Z,72.02
2023-11-19T15:38:53.006Z,72.50
2023-11-19T15:41:20.865Z,71.42
2023-11-19T15:43:47.641Z,72.02
2023-11-19T15:46:14.234Z,72.22
2023-11-19T15:48:40.857Z,72.17
2023-11-19T15:51:07.427Z,72.14
2023-11-19T15:53:34.247Z,72.15
2023-11-19T15:56:01.119Z,72.88
2023-11-19T15:58:27.805Z,72.53
2023-11-19T16:00:54.476Z,72.90
2023-11-19T16:03:21.315Z,72.87
2023-11-19T16:05:57.638Z,72.94
2023-11-19T16:08:31.101Z,72.75
2023-11-19T16:10:57.729Z,72.36
2023-11-19T16:13:24.345Z,72.54
2023-11-19T16:15:50.929Z,72.53
2023-11-19T16:18:18.515Z,72.07
2023-11-19T16:20:46.023Z,72.03
2023-11-19T16:23:13.258Z,72.62
2023-11-19T16:25:40.310Z,72.16
2023-11-19T16:28:08.633Z,71.63
2023-11-19T16:30:35.536Z,71.92
2023-11-19T16:33:02.402Z,72.13
2023-11-19T16:35:29.029Z,71.88
2023-11-19T16:37:55.928Z,71.94
2023-11-19T16:40:24.370Z,72.27
2023-11-19T16:42:51.791Z,71.93
2023-11-19T16:45:18.712Z,72.10
2023-11-19T16:47:48.673Z,72.86
2023-11-19T16:50:18.508Z,72.86
2023-11-19T16:52:45.193Z,73.06
2023-11-19T16:55:14.778Z,72.91
2023-11-19T16:57:42.508Z,73.19
2023-11-19T17:00:11.783Z,73.47
2023-11-19T17:05:13.190Z,73.67
2023-11-19T17:07:40.436Z,73.36
2023-11-19T17:10:09.318Z,73.45
2023-11-19T17:12:35.876Z,73.59
2023-11-19T17:15:05.550Z,73.67
2023-11-19T17:17:35.231Z,73.53
2023-11-19T17:20:06.049Z,73.27
2023-11-19T17:22:38.032Z,73.25
2023-11-19T17:25:06.759Z,73.87
2023-11-19T17:27:34.392Z,74.05
2023-11-19T17:30:01.991Z,74.06
2023-11-19T17:32:29.023Z,73.91
2023-11-19T17:34:55.734Z,74.46
2023-11-19T17:37:22.678Z,74.72
2023-11-19T17:39:49.919Z,74.54
2023-11-19T17:42:16.561Z,74.80
2023-11-19T17:44:43.245Z,75.02
2023-11-19T17:47:10.012Z,75.02
2023-11-19T17:49:36.833Z,76.03
2023-11-19T17:52:04.221Z,76.82
2023-11-19T17:54:30.727Z,76.85
2023-11-19T17:56:58.370Z,76.88
2023-11-19T17:59:26.294Z,76.57
2023-11-19T18:01:58.109Z,77.20
2023-11-19T18:04:28.506Z,76.97
2023-11-19T18:06:55.291Z,76.77
2023-11-19T18:09:21.947Z,76.62
2023-11-19T18:11:52.210Z,76.49
2023-11-19T18:14:21.463Z,75.98
2023-11-19T18:16:48.071Z,75.54
2023-11-19T18:19:14.648Z,75.47
2023-11-19T18:21:41.308Z,75.67
2023-11-19T18:24:08.849Z,75.30
2023-11-19T18:29:05.700Z,75.39
2023-11-19T18:31:33.898Z,75.22
2023-11-19T18:34:00.826Z,74.97
2023-11-19T18:36:28.902Z,74.46
2023-11-19T18:38:55.679Z,74.65
2023-11-19T18:41:22.356Z,74.67
2023-11-19T18:43:49.044Z,74.39
2023-11-19T18:46:15.945Z,74.64
2023-11-19T18:48:42.655Z,74.55
2023-11-19T18:51:15.059Z,74.52
2023-11-19T18:53:49.100Z,74.55
2023-11-19T18:56:16.035Z,74.77
2023-11-19T18:58:42.768Z,74.93
2023-11-19T19:01:15.669Z,75.05
2023-11-19T19:03:43.413Z,76.00
2023-11-19T19:06:10.373Z,76.59
2023-11-19T19:08:37.502Z,77.49
2023-11-19T19:11:04.881Z,78.19
2023-11-19T19:13:31.461Z,79.08
2023-11-19T19:15:58.229Z,79.33
2023-11-19T19:18:25.157Z,80.57
2023-11-19T19:20:53.000Z,80.57
2023-11-19T19:23:19.618Z,80.82
2023-11-19T19:25:46.176Z,80.10
2023-11-19T19:30:42.599Z,77.65
2023-11-19T19:33:10.096Z,78.50
2023-11-19T19:35:37.030Z,79.10
2023-11-19T19:38:05.314Z,78.80
2023-11-19T19:40:32.029Z,78.65
2023-11-19T19:43:00.176Z,77.92
2023-11-19T19:45:26.995Z,77.44
2023-11-19T19:47:55.795Z,77.05
2023-11-19T19:50:22.969Z,76.41
2023-11-19T19:52:51.410Z,76.00
2023-11-19T19:55:22.492Z,75.93
2023-11-19T19:57:49.474Z,75.77
2023-11-19T20:00:17.624Z,74.95
2023-11-19T20:02:46.021Z,75.41
2023-11-19T20:05:13.564Z,75.84
2023-11-19T20:07:44.377Z,75.46
2023-11-19T20:10:13.050Z,76.07
2023-11-19T20:12:42.529Z,76.62
2023-11-19T20:15:12.336Z,76.80
2023-11-19T20:17:39.390Z,76.34
2023-11-19T20:20:07.561Z,76.70
2023-11-19T20:22:35.521Z,76.96
2023-11-19T20:25:02.209Z,77.08
2023-11-19T20:27:29.426Z,77.35
2023-11-19T20:29:56.344Z,77.18
2023-11-19T20:32:23.352Z,76.93
2023-11-19T20:34:50.069Z,77.03
2023-11-19T20:37:16.737Z,76.66
2023-11-19T20:39:43.339Z,77.31
2023-11-19T20:42:10.048Z,77.33
2023-11-19T20:44:37.784Z,77.14
2023-11-19T20:47:06.332Z,76.95
2023-11-19T20:49:33.068Z,76.19
2023-11-19T20:51:59.856Z,75.87
2023-11-19T20:56:56.006Z,75.30
2023-11-19T20:59:22.597Z,75.87
2023-11-19T21:01:49.328Z,76.54
2023-11-19T21:04:16.832Z,76.88
2023-11-19T21:09:17.165Z,76.94
2023-11-19T21:11:43.901Z,77.03
2023-11-19T21:14:11.218Z,77.29
2023-11-19T21:16:38.322Z,77.26
2023-11-19T21:19:05.095Z,76.91
2023-11-19T21:21:31.814Z,77.29
2023-11-19T21:23:59.635Z,77.26
2023-11-19T21:26:26.238Z,77.32
2023-11-19T21:28:52.898Z,77.14
2023-11-19T21:31:19.622Z,76.78
2023-11-19T21:33:46.715Z,76.35
2023-11-19T21:36:13.612Z,76.29
2023-11-19T21:38:40.219Z,76.85
2023-11-19T21:41:08.211Z,77.06
2023-11-19T21:43:35.361Z,77.48
2023-11-19T21:46:02.233Z,77.67
2023-11-19T21:48:29.099Z,77.39
2023-11-19T21:50:56.508Z,77.32
2023-11-19T21:53:23.082Z,76.84
2023-11-19T21:55:50.473Z,77.50
2023-11-19T21:58:16.993Z,78.11
2023-11-19T22:00:43.628Z,78.37
2023-11-19T22:03:10.374Z,78.86
2023-11-19T22:05:37.475Z,79.03
2023-11-19T22:10:33.929Z,78.99
2023-11-19T22:13:00.495Z,78.45
2023-11-19T22:15:27.342Z,78.09
2023-11-19T22:17:54.616Z,77.70
2023-11-19T22:20:25.374Z,76.92
2023-11-19T22:22:52.712Z,76.97
2023-11-19T22:25:20.498Z,76.45
2023-11-19T22:27:47.478Z,76.31
2023-11-19T22:30:14.796Z,76.58
2023-11-19T22:32:41.861Z,76.04
2023-11-19T22:35:09.413Z,76.08
2023-11-19T22:37:36.033Z,76.54
2023-11-19T22:40:03.056Z,76.08
2023-11-19T22:42:30.063Z,76.40
2023-11-19T22:44:56.782Z,76.83
2023-11-19T22:47:23.607Z,76.94
2023-11-19T22:49:50.285Z,77.37
2023-11-19T22:52:16.911Z,77.30
2023-11-19T22:54:44.081Z,77.58
2023-11-19T22:57:10.773Z,77.96
2023-11-19T22:59:37.370Z,78.10
2023-11-19T23:02:04.180Z,78.38
2023-11-19T23:04:30.786Z,78.21
2023-11-19T23:06:57.350Z,77.79
2023-11-19T23:09:24.013Z,77.70
2023-11-19T23:11:50.555Z,76.79
2023-11-19T23:14:17.190Z,76.48
2023-11-19T23:16:43.769Z,76.66
2023-11-19T23:19:10.612Z,75.94
2023-11-19T23:21:41.261Z,75.38
2023-11-19T23:24:08.439Z,75.33
2023-11-19T23:26:35.010Z,75.26
2023-11-19T23:29:09.510Z,75.20
2023-11-19T23:31:40.171Z,74.96
2023-11-19T23:34:06.962Z,74.93
2023-11-19T23:36:33.772Z,73.75
2023-11-19T23:39:00.421Z,73.96
2023-11-19T23:41:28.999Z,74.04
2023-11-19T23:43:56.680Z,74.16
2023-11-19T23:46:25.145Z,74.57
2023-11-19T23:51:22.337Z,75.69
2023-11-19T23:53:48.936Z,75.70
2023-11-19T23:56:15.537Z,75.93
2023-11-19T23:58:42.113Z,76.67
